sensor_id;sensor_type;location;lat;lon;timestamp;temperature;humidity
10419;DHT22;5256;48.728;9.140;2022-10-29T00:02:07;13.20;99.90
10419;DHT22;5256;48.728;9.140;2022-10-29T00:04:32;13.10;99.90
10419;DHT22;5256;48.728;9.140;2022-10-29T00:06:58;13.00;99.90
10419;DHT22;5256;48.728;9.140;2022-10-29T00:09:23;13.00;99.90
10419;DHT22;5256;48.728;9.140;2022-10-29T00:11:49;12.90;99.90
10419;DHT22;5256;48.728;9.140;2022-10-29T00:14:15;12.80;99.90
10419;DHT22;5256;48.728;9.140;2022-10-29T00:16:40;12.80;99.90
10419;DHT22;5256;48.728;9.140;2022-10-29T00:19:06;12.60;99.90
10419;DHT22;5256;48.728;9.140;2022-10-29T00:21:32;12.60;99.90
10419;DHT22;5256;48.728;9.140;2022-10-29T00:23:58;12.50;99.90
10419;DHT22;5256;48.728;9.140;2022-10-29T00:26:24;12.40;99.90
10419;DHT22;5256;48.728;9.140;2022-10-29T00:28:53;12.40;99.90
10419;DHT22;5256;48.728;9.140;2022-10-29T00:31:19;12.30;99.90
10419;DHT22;5256;48.728;9.140;2022-10-29T00:33:45;12.20;99.90
10419;DHT22;5256;48.728;9.140;2022-10-29T00:36:16;12.20;99.90
10419;DHT22;5256;48.728;9.140;2022-10-29T00:38:43;12.10;99.90
10419;DHT22;5256;48.728;9.140;2022-10-29T00:41:15;12.10;99.90
10419;DHT22;5256;48.728;9.140;2022-10-29T00:43:46;12.10;99.90
10419;DHT22;5256;48.728;9.140;2022-10-29T00:46:33;12.10;99.90
10419;DHT22;5256;48.728;9.140;2022-10-29T00:49:00;12.20;99.90
10419;DHT22;5256;48.728;9.140;2022-10-29T00:51:26;12.20;99.90
10419;DHT22;5256;48.728;9.140;2022-10-29T00:54:01;12.10;99.90
10419;DHT22;5256;48.728;9.140;2022-10-29T00:56:30;12.10;99.90
10419;DHT22;5256;48.728;9.140;2022-10-29T00:58:58;12.10;99.90
10419;DHT22;5256;48.728;9.140;2022-10-29T01:01:24;12.10;99.90
10419;DHT22;5256;48.728;9.140;2022-10-29T01:03:50;12.10;99.90
10419;DHT22;5256;48.728;9.140;2022-10-29T01:06:17;12.10;99.90
10419;DHT22;5256;48.728;9.140;2022-10-29T01:08:43;12.10;99.90
10419;DHT22;5256;48.728;9.140;2022-10-29T01:14:24;12.00;99.90
10419;DHT22;5256;48.728;9.140;2022-10-29T01:23:38;12.00;99.90
10419;DHT22;5256;48.728;9.140;2022-10-29T01:31:52;12.20;99.90
10419;DHT22;5256;48.728;9.140;2022-10-29T01:37:00;12.20;99.90
10419;DHT22;5256;48.728;9.140;2022-10-29T01:39:36;12.20;99.90
10419;DHT22;5256;48.728;9.140;2022-10-29T01:42:29;12.30;99.90
10419;DHT22;5256;48.728;9.140;2022-10-29T01:45:12;12.30;99.90
10419;DHT22;5256;48.728;9.140;2022-10-29T01:47:53;12.30;99.90
10419;DHT22;5256;48.728;9.140;2022-10-29T01:50:22;12.40;99.90
10419;DHT22;5256;48.728;9.140;2022-10-29T01:52:48;12.40;99.90
10419;DHT22;5256;48.728;9.140;2022-10-29T01:55:20;12.40;99.90
10419;DHT22;5256;48.728;9.140;2022-10-29T01:57:46;12.40;99.90
10419;DHT22;5256;48.728;9.140;2022-10-29T02:00:14;12.40;99.90
10419;DHT22;5256;48.728;9.140;2022-10-29T02:06:01;12.40;99.90
10419;DHT22;5256;48.728;9.140;2022-10-29T02:11:55;12.20;99.90
10419;DHT22;5256;48.728;9.140;2022-10-29T02:14:26;12.20;99.90
10419;DHT22;5256;48.728;9.140;2022-10-29T02:16:55;12.20;99.90
10419;DHT22;5256;48.728;9.140;2022-10-29T02:19:20;12.20;99.90
10419;DHT22;5256;48.728;9.140;2022-10-29T02:21:49;12.20;99.90
10419;DHT22;5256;48.728;9.140;2022-10-29T02:24:14;12.30;99.90
10419;DHT22;5256;48.728;9.140;2022-10-29T02:26:40;12.30;99.90
10419;DHT22;5256;48.728;9.140;2022-10-29T02:29:05;12.40;99.90
10419;DHT22;5256;48.728;9.140;2022-10-29T02:31:31;12.40;99.90
10419;DHT22;5256;48.728;9.140;2022-10-29T02:33:56;12.40;99.90
10419;DHT22;5256;48.728;9.140;2022-10-29T02:36:22;12.50;99.90
10419;DHT22;5256;48.728;9.140;2022-10-29T02:38:47;12.50;99.90
10419;DHT22;5256;48.728;9.140;2022-10-29T02:41:13;12.50;99.90
10419;DHT22;5256;48.728;9.140;2022-10-29T02:43:39;12.60;99.90
10419;DHT22;5256;48.728;9.140;2022-10-29T02:46:12;12.60;99.90
10419;DHT22;5256;48.728;9.140;2022-10-29T02:48:38;12.60;99.90
10419;DHT22;5256;48.728;9.140;2022-10-29T02:51:03;12.60;99.90
10419;DHT22;5256;48.728;9.140;2022-10-29T02:53:29;12.60;99.90
10419;DHT22;5256;48.728;9.140;2022-10-29T02:55:54;12.70;99.90
10419;DHT22;5256;48.728;9.140;2022-10-29T02:58:20;12.70;99.90
10419;DHT22;5256;48.728;9.140;2022-10-29T03:00:49;12.70;99.90
10419;DHT22;5256;48.728;9.140;2022-10-29T03:03:14;12.70;99.90
10419;DHT22;5256;48.728;9.140;2022-10-29T03:05:40;12.70;99.90
10419;DHT22;5256;48.728;9.140;2022-10-29T03:08:06;12.70;99.90
10419;DHT22;5256;48.728;9.140;2022-10-29T03:10:31;12.70;99.90
10419;DHT22;5256;48.728;9.140;2022-10-29T03:13:00;12.70;99.90
10419;DHT22;5256;48.728;9.140;2022-10-29T03:15:26;12.70;99.90
10419;DHT22;5256;48.728;9.140;2022-10-29T03:17:51;12.70;99.90
10419;DHT22;5256;48.728;9.140;2022-10-29T03:20:17;12.80;99.90
10419;DHT22;5256;48.728;9.140;2022-10-29T03:22:45;12.70;99.90
10419;DHT22;5256;48.728;9.140;2022-10-29T03:25:11;12.70;99.90
10419;DHT22;5256;48.728;9.140;2022-10-29T03:27:40;12.70;99.90
10419;DHT22;5256;48.728;9.140;2022-10-29T03:30:10;12.70;99.90
10419;DHT22;5256;48.728;9.140;2022-10-29T03:32:39;12.60;99.90
10419;DHT22;5256;48.728;9.140;2022-10-29T03:35:06;12.70;99.90
10419;DHT22;5256;48.728;9.140;2022-10-29T03:37:32;12.60;99.90
10419;DHT22;5256;48.728;9.140;2022-10-29T03:39:58;12.70;99.90
10419;DHT22;5256;48.728;9.140;2022-10-29T03:42:23;12.60;99.90
10419;DHT22;5256;48.728;9.140;2022-10-29T03:44:49;12.60;99.90
10419;DHT22;5256;48.728;9.140;2022-10-29T03:47:14;12.60;99.90
10419;DHT22;5256;48.728;9.140;2022-10-29T03:49:40;12.60;99.90
10419;DHT22;5256;48.728;9.140;2022-10-29T03:52:05;12.50;99.90
10419;DHT22;5256;48.728;9.140;2022-10-29T03:54:31;12.50;99.90
10419;DHT22;5256;48.728;9.140;2022-10-29T03:56:56;12.50;99.90
10419;DHT22;5256;48.728;9.140;2022-10-29T03:59:22;12.50;99.90
10419;DHT22;5256;48.728;9.140;2022-10-29T04:01:47;12.50;99.90
10419;DHT22;5256;48.728;9.140;2022-10-29T04:04:13;12.50;99.90
10419;DHT22;5256;48.728;9.140;2022-10-29T04:06:38;12.60;99.90
10419;DHT22;5256;48.728;9.140;2022-10-29T04:09:04;12.60;99.90
10419;DHT22;5256;48.728;9.140;2022-10-29T04:11:29;12.60;99.90
10419;DHT22;5256;48.728;9.140;2022-10-29T04:13:55;12.70;99.90
10419;DHT22;5256;48.728;9.140;2022-10-29T04:16:20;12.70;99.90
10419;DHT22;5256;48.728;9.140;2022-10-29T04:18:47;12.70;99.90
10419;DHT22;5256;48.728;9.140;2022-10-29T04:21:12;12.70;99.90
10419;DHT22;5256;48.728;9.140;2022-10-29T04:23:38;12.60;99.90
10419;DHT22;5256;48.728;9.140;2022-10-29T04:26:04;12.60;99.90
10419;DHT22;5256;48.728;9.140;2022-10-29T04:28:29;12.60;99.90
10419;DHT22;5256;48.728;9.140;2022-10-29T04:30:55;12.50;99.90
10419;DHT22;5256;48.728;9.140;2022-10-29T04:33:20;12.50;99.90
10419;DHT22;5256;48.728;9.140;2022-10-29T04:35:52;12.50;99.90
10419;DHT22;5256;48.728;9.140;2022-10-29T04:38:19;12.40;99.90
10419;DHT22;5256;48.728;9.140;2022-10-29T04:40:44;12.40;99.90
10419;DHT22;5256;48.728;9.140;2022-10-29T04:43:10;12.30;99.90
10419;DHT22;5256;48.728;9.140;2022-10-29T04:45:35;12.30;99.90
10419;DHT22;5256;48.728;9.140;2022-10-29T04:48:02;12.20;99.90
10419;DHT22;5256;48.728;9.140;2022-10-29T04:50:29;12.20;99.90
10419;DHT22;5256;48.728;9.140;2022-10-29T04:52:58;12.10;99.90
10419;DHT22;5256;48.728;9.140;2022-10-29T04:55:25;12.10;99.90
10419;DHT22;5256;48.728;9.140;2022-10-29T04:57:50;12.00;99.90
10419;DHT22;5256;48.728;9.140;2022-10-29T05:00:20;12.00;99.90
10419;DHT22;5256;48.728;9.140;2022-10-29T05:02:49;12.00;99.90
10419;DHT22;5256;48.728;9.140;2022-10-29T05:05:19;11.90;99.90
10419;DHT22;5256;48.728;9.140;2022-10-29T05:07:45;11.90;99.90
10419;DHT22;5256;48.728;9.140;2022-10-29T05:10:11;11.80;99.90
10419;DHT22;5256;48.728;9.140;2022-10-29T05:12:37;11.70;99.90
10419;DHT22;5256;48.728;9.140;2022-10-29T05:15:03;11.70;99.90
10419;DHT22;5256;48.728;9.140;2022-10-29T05:17:29;11.60;99.90
10419;DHT22;5256;48.728;9.140;2022-10-29T05:19:54;11.50;99.90
10419;DHT22;5256;48.728;9.140;2022-10-29T05:22:20;11.40;99.90
10419;DHT22;5256;48.728;9.140;2022-10-29T05:24:46;11.30;99.90
10419;DHT22;5256;48.728;9.140;2022-10-29T05:27:12;11.30;99.90
10419;DHT22;5256;48.728;9.140;2022-10-29T05:29:37;11.30;99.90
10419;DHT22;5256;48.728;9.140;2022-10-29T05:32:03;11.30;99.90
10419;DHT22;5256;48.728;9.140;2022-10-29T05:34:28;11.30;99.90
10419;DHT22;5256;48.728;9.140;2022-10-29T05:36:54;11.30;99.90
10419;DHT22;5256;48.728;9.140;2022-10-29T05:39:20;11.30;99.90
10419;DHT22;5256;48.728;9.140;2022-10-29T05:41:45;11.30;99.90
10419;DHT22;5256;48.728;9.140;2022-10-29T05:44:11;11.20;99.90
10419;DHT22;5256;48.728;9.140;2022-10-29T05:46:37;11.30;99.90
10419;DHT22;5256;48.728;9.140;2022-10-29T05:49:03;11.30;99.90
10419;DHT22;5256;48.728;9.140;2022-10-29T05:51:28;11.20;99.90
10419;DHT22;5256;48.728;9.140;2022-10-29T05:53:54;11.10;99.90
10419;DHT22;5256;48.728;9.140;2022-10-29T05:56:19;11.10;99.90
10419;DHT22;5256;48.728;9.140;2022-10-29T05:58:48;11.00;99.90
10419;DHT22;5256;48.728;9.140;2022-10-29T06:01:14;11.00;99.90
10419;DHT22;5256;48.728;9.140;2022-10-29T06:03:39;11.00;99.90
10419;DHT22;5256;48.728;9.140;2022-10-29T06:06:05;11.00;99.90
10419;DHT22;5256;48.728;9.140;2022-10-29T06:08:31;11.00;99.90
10419;DHT22;5256;48.728;9.140;2022-10-29T06:10:59;11.00;99.90
10419;DHT22;5256;48.728;9.140;2022-10-29T06:13:26;11.00;99.90
10419;DHT22;5256;48.728;9.140;2022-10-29T06:15:58;11.00;99.90
10419;DHT22;5256;48.728;9.140;2022-10-29T06:18:25;10.90;99.90
10419;DHT22;5256;48.728;9.140;2022-10-29T06:20:56;10.90;99.90
10419;DHT22;5256;48.728;9.140;2022-10-29T06:23:22;10.90;99.90
10419;DHT22;5256;48.728;9.140;2022-10-29T06:25:47;10.90;99.90
10419;DHT22;5256;48.728;9.140;2022-10-29T06:28:13;10.90;99.90
10419;DHT22;5256;48.728;9.140;2022-10-29T06:30:47;10.80;99.90
10419;DHT22;5256;48.728;9.140;2022-10-29T06:33:14;10.80;99.90
10419;DHT22;5256;48.728;9.140;2022-10-29T06:35:40;10.80;99.90
10419;DHT22;5256;48.728;9.140;2022-10-29T06:38:05;10.90;99.90
10419;DHT22;5256;48.728;9.140;2022-10-29T06:40:34;10.90;99.90
10419;DHT22;5256;48.728;9.140;2022-10-29T06:43:10;10.90;99.90
10419;DHT22;5256;48.728;9.140;2022-10-29T06:45:36;10.90;99.90
10419;DHT22;5256;48.728;9.140;2022-10-29T06:48:02;10.90;99.90
10419;DHT22;5256;48.728;9.140;2022-10-29T06:50:32;11.00;99.90
10419;DHT22;5256;48.728;9.140;2022-10-29T06:53:01;11.00;99.90
10419;DHT22;5256;48.728;9.140;2022-10-29T06:55:27;11.10;99.90
10419;DHT22;5256;48.728;9.140;2022-10-29T06:58:10;11.10;99.90
10419;DHT22;5256;48.728;9.140;2022-10-29T07:00:37;11.20;99.90
10419;DHT22;5256;48.728;9.140;2022-10-29T07:03:03;11.30;99.90
10419;DHT22;5256;48.728;9.140;2022-10-29T07:05:30;11.50;99.90
10419;DHT22;5256;48.728;9.140;2022-10-29T07:07:57;11.60;99.90
10419;DHT22;5256;48.728;9.140;2022-10-29T07:10:23;11.70;99.90
10419;DHT22;5256;48.728;9.140;2022-10-29T07:12:49;11.80;99.90
10419;DHT22;5256;48.728;9.140;2022-10-29T07:15:15;12.00;99.90
10419;DHT22;5256;48.728;9.140;2022-10-29T07:17:41;12.20;99.90
10419;DHT22;5256;48.728;9.140;2022-10-29T07:20:07;12.30;99.90
10419;DHT22;5256;48.728;9.140;2022-10-29T07:22:33;12.50;99.90
10419;DHT22;5256;48.728;9.140;2022-10-29T07:25:02;12.60;99.90
10419;DHT22;5256;48.728;9.140;2022-10-29T07:27:27;12.80;99.90
10419;DHT22;5256;48.728;9.140;2022-10-29T07:29:53;13.00;99.90
10419;DHT22;5256;48.728;9.140;2022-10-29T07:32:18;13.30;99.90
10419;DHT22;5256;48.728;9.140;2022-10-29T07:34:44;13.60;99.90
10419;DHT22;5256;48.728;9.140;2022-10-29T07:37:09;13.90;99.90
10419;DHT22;5256;48.728;9.140;2022-10-29T07:39:35;14.20;99.90
10419;DHT22;5256;48.728;9.140;2022-10-29T07:42:01;14.50;99.90
10419;DHT22;5256;48.728;9.140;2022-10-29T07:44:26;14.70;99.90
10419;DHT22;5256;48.728;9.140;2022-10-29T07:46:55;14.90;99.90
10419;DHT22;5256;48.728;9.140;2022-10-29T07:49:20;15.00;99.90
10419;DHT22;5256;48.728;9.140;2022-10-29T07:51:47;15.20;99.90
10419;DHT22;5256;48.728;9.140;2022-10-29T07:54:12;15.40;99.90
10419;DHT22;5256;48.728;9.140;2022-10-29T07:56:41;15.40;99.90
10419;DHT22;5256;48.728;9.140;2022-10-29T07:59:06;15.50;99.90
10419;DHT22;5256;48.728;9.140;2022-10-29T08:01:33;15.60;99.90
10419;DHT22;5256;48.728;9.140;2022-10-29T08:03:59;15.60;99.90
10419;DHT22;5256;48.728;9.140;2022-10-29T08:06:24;15.80;99.90
10419;DHT22;5256;48.728;9.140;2022-10-29T08:08:50;15.90;99.90
10419;DHT22;5256;48.728;9.140;2022-10-29T08:11:15;16.10;99.90
10419;DHT22;5256;48.728;9.140;2022-10-29T08:13:41;16.20;99.90
10419;DHT22;5256;48.728;9.140;2022-10-29T08:16:06;16.30;99.90
10419;DHT22;5256;48.728;9.140;2022-10-29T08:18:32;16.60;99.90
10419;DHT22;5256;48.728;9.140;2022-10-29T08:21:02;17.00;99.90
10419;DHT22;5256;48.728;9.140;2022-10-29T08:23:28;17.30;99.90
10419;DHT22;5256;48.728;9.140;2022-10-29T08:25:56;17.50;99.90
10419;DHT22;5256;48.728;9.140;2022-10-29T08:28:22;17.80;99.90
10419;DHT22;5256;48.728;9.140;2022-10-29T08:30:48;17.90;99.90
10419;DHT22;5256;48.728;9.140;2022-10-29T08:33:14;18.10;99.90
10419;DHT22;5256;48.728;9.140;2022-10-29T08:35:40;18.40;99.90
10419;DHT22;5256;48.728;9.140;2022-10-29T08:38:05;18.70;99.90
10419;DHT22;5256;48.728;9.140;2022-10-29T08:46:08;18.90;99.90
10419;DHT22;5256;48.728;9.140;2022-10-29T08:48:42;19.00;99.90
10419;DHT22;5256;48.728;9.140;2022-10-29T08:51:29;18.90;99.90
10419;DHT22;5256;48.728;9.140;2022-10-29T08:53:56;18.90;99.90
10419;DHT22;5256;48.728;9.140;2022-10-29T08:56:34;19.00;99.90
10419;DHT22;5256;48.728;9.140;2022-10-29T08:59:45;18.90;99.90
10419;DHT22;5256;48.728;9.140;2022-10-29T09:02:02;19.00;99.90
10419;DHT22;5256;48.728;9.140;2022-10-29T09:04:35;19.00;99.90
10419;DHT22;5256;48.728;9.140;2022-10-29T09:10:02;19.20;99.90
10419;DHT22;5256;48.728;9.140;2022-10-29T09:15:53;19.30;99.90
10419;DHT22;5256;48.728;9.140;2022-10-29T09:18:40;19.30;99.90
10419;DHT22;5256;48.728;9.140;2022-10-29T09:21:21;19.30;99.90
10419;DHT22;5256;48.728;9.140;2022-10-29T09:24:17;19.30;99.90
10419;DHT22;5256;48.728;9.140;2022-10-29T09:27:02;19.40;99.90
10419;DHT22;5256;48.728;9.140;2022-10-29T09:29:35;19.50;99.90
10419;DHT22;5256;48.728;9.140;2022-10-29T09:34:49;19.50;99.90
10419;DHT22;5256;48.728;9.140;2022-10-29T09:37:22;19.60;99.90
10419;DHT22;5256;48.728;9.140;2022-10-29T09:39:49;19.70;99.90
10419;DHT22;5256;48.728;9.140;2022-10-29T09:42:22;19.60;99.90
10419;DHT22;5256;48.728;9.140;2022-10-29T09:44:58;19.60;99.90
10419;DHT22;5256;48.728;9.140;2022-10-29T09:47:44;19.70;99.90
10419;DHT22;5256;48.728;9.140;2022-10-29T09:52:53;19.80;99.90
10419;DHT22;5256;48.728;9.140;2022-10-29T09:55:23;19.70;99.90
10419;DHT22;5256;48.728;9.140;2022-10-29T09:57:50;19.70;99.90
10419;DHT22;5256;48.728;9.140;2022-10-29T10:00:26;19.80;99.90
10419;DHT22;5256;48.728;9.140;2022-10-29T10:05:34;20.20;99.90
10419;DHT22;5256;48.728;9.140;2022-10-29T10:08:11;20.40;99.90
10419;DHT22;5256;48.728;9.140;2022-10-29T10:10:55;20.50;99.90
10419;DHT22;5256;48.728;9.140;2022-10-29T10:13:23;20.50;99.90
10419;DHT22;5256;48.728;9.140;2022-10-29T10:15:52;20.60;99.90
10419;DHT22;5256;48.728;9.140;2022-10-29T10:18:21;20.60;99.90
10419;DHT22;5256;48.728;9.140;2022-10-29T10:23:26;20.70;99.90
10419;DHT22;5256;48.728;9.140;2022-10-29T10:25:57;20.90;99.90
10419;DHT22;5256;48.728;9.140;2022-10-29T10:28:28;20.90;99.90
10419;DHT22;5256;48.728;9.140;2022-10-29T10:33:30;21.10;99.90
10419;DHT22;5256;48.728;9.140;2022-10-29T10:36:03;21.20;99.90
10419;DHT22;5256;48.728;9.140;2022-10-29T10:38:38;21.30;99.90
10419;DHT22;5256;48.728;9.140;2022-10-29T10:41:06;21.40;99.90
10419;DHT22;5256;48.728;9.140;2022-10-29T10:43:33;21.40;99.90
10419;DHT22;5256;48.728;9.140;2022-10-29T10:46:04;21.50;99.90
10419;DHT22;5256;48.728;9.140;2022-10-29T10:48:30;21.60;99.90
10419;DHT22;5256;48.728;9.140;2022-10-29T10:51:16;21.60;99.90
10419;DHT22;5256;48.728;9.140;2022-10-29T10:53:44;21.60;99.90
10419;DHT22;5256;48.728;9.140;2022-10-29T10:56:16;21.60;99.90
10419;DHT22;5256;48.728;9.140;2022-10-29T10:58:46;21.60;99.90
10419;DHT22;5256;48.728;9.140;2022-10-29T11:04:40;21.80;99.90
10419;DHT22;5256;48.728;9.140;2022-10-29T11:06:51;21.80;99.90
10419;DHT22;5256;48.728;9.140;2022-10-29T11:12:14;22.00;99.90
10419;DHT22;5256;48.728;9.140;2022-10-29T11:14:56;22.20;99.90
10419;DHT22;5256;48.728;9.140;2022-10-29T11:17:30;22.20;99.90
10419;DHT22;5256;48.728;9.140;2022-10-29T11:20:01;22.20;99.90
10419;DHT22;5256;48.728;9.140;2022-10-29T11:22:32;22.20;99.90
10419;DHT22;5256;48.728;9.140;2022-10-29T11:25:17;22.30;99.90
10419;DHT22;5256;48.728;9.140;2022-10-29T11:30:35;22.40;99.90
10419;DHT22;5256;48.728;9.140;2022-10-29T11:33:22;22.40;99.90
10419;DHT22;5256;48.728;9.140;2022-10-29T11:35:59;22.50;99.90
10419;DHT22;5256;48.728;9.140;2022-10-29T11:38:44;22.50;99.90
10419;DHT22;5256;48.728;9.140;2022-10-29T11:41:20;22.60;99.90
10419;DHT22;5256;48.728;9.140;2022-10-29T11:43:48;22.80;99.90
10419;DHT22;5256;48.728;9.140;2022-10-29T11:52:09;22.90;99.90
10419;DHT22;5256;48.728;9.140;2022-10-29T11:55:22;23.00;99.90
10419;DHT22;5256;48.728;9.140;2022-10-29T11:57:57;23.20;99.90
10419;DHT22;5256;48.728;9.140;2022-10-29T12:00:23;23.40;99.90
10419;DHT22;5256;48.728;9.140;2022-10-29T12:16:47;24.10;99.90
10419;DHT22;5256;48.728;9.140;2022-10-29T12:22:17;24.20;99.90
10419;DHT22;5256;48.728;9.140;2022-10-29T12:27:28;24.10;99.90
10419;DHT22;5256;48.728;9.140;2022-10-29T12:30:06;24.20;99.90
10419;DHT22;5256;48.728;9.140;2022-10-29T12:32:51;24.10;99.90
10419;DHT22;5256;48.728;9.140;2022-10-29T12:40:57;24.20;99.90
10419;DHT22;5256;48.728;9.140;2022-10-29T12:43:33;24.10;99.90
10419;DHT22;5256;48.728;9.140;2022-10-29T12:46:30;24.10;99.90
10419;DHT22;5256;48.728;9.140;2022-10-29T12:52:01;24.20;99.90
10419;DHT22;5256;48.728;9.140;2022-10-29T12:54:42;24.30;99.90
10419;DHT22;5256;48.728;9.140;2022-10-29T12:59:38;24.20;99.90
10419;DHT22;5256;48.728;9.140;2022-10-29T13:02:24;24.10;99.90
10419;DHT22;5256;48.728;9.140;2022-10-29T13:07:32;24.10;99.90
10419;DHT22;5256;48.728;9.140;2022-10-29T13:15:37;24.10;99.90
10419;DHT22;5256;48.728;9.140;2022-10-29T13:18:20;24.10;99.90
10419;DHT22;5256;48.728;9.140;2022-10-29T13:20:50;24.20;99.90
10419;DHT22;5256;48.728;9.140;2022-10-29T13:25:55;24.20;99.90
10419;DHT22;5256;48.728;9.140;2022-10-29T13:30:51;24.20;99.90
10419;DHT22;5256;48.728;9.140;2022-10-29T13:38:41;24.20;99.90
10419;DHT22;5256;48.728;9.140;2022-10-29T13:41:20;24.20;99.90
10419;DHT22;5256;48.728;9.140;2022-10-29T13:44:09;24.20;99.90
10419;DHT22;5256;48.728;9.140;2022-10-29T13:49:40;24.10;99.90
10419;DHT22;5256;48.728;9.140;2022-10-29T13:52:10;24.00;99.90
10419;DHT22;5256;48.728;9.140;2022-10-29T13:54:57;24.00;99.90
10419;DHT22;5256;48.728;9.140;2022-10-29T13:57:45;24.00;99.90
10419;DHT22;5256;48.728;9.140;2022-10-29T14:00:17;24.00;99.90
10419;DHT22;5256;48.728;9.140;2022-10-29T14:03:03;23.90;99.90
10419;DHT22;5256;48.728;9.140;2022-10-29T14:05:44;23.80;99.90
10419;DHT22;5256;48.728;9.140;2022-10-29T14:15:30;23.70;99.90
10419;DHT22;5256;48.728;9.140;2022-10-29T14:17:56;23.70;99.90
10419;DHT22;5256;48.728;9.140;2022-10-29T14:20:25;23.60;99.90
10419;DHT22;5256;48.728;9.140;2022-10-29T14:22:50;23.50;99.90
10419;DHT22;5256;48.728;9.140;2022-10-29T14:25:27;23.40;99.90
10419;DHT22;5256;48.728;9.140;2022-10-29T14:28:15;23.40;99.90
10419;DHT22;5256;48.728;9.140;2022-10-29T14:30:42;23.30;99.90
10419;DHT22;5256;48.728;9.140;2022-10-29T14:33:27;23.20;99.90
10419;DHT22;5256;48.728;9.140;2022-10-29T14:36:07;23.10;99.90
10419;DHT22;5256;48.728;9.140;2022-10-29T14:41:23;23.00;99.90
10419;DHT22;5256;48.728;9.140;2022-10-29T14:47:29;22.80;99.90
10419;DHT22;5256;48.728;9.140;2022-10-29T14:49:56;22.60;99.90
10419;DHT22;5256;48.728;9.140;2022-10-29T14:52:38;22.50;99.90
10419;DHT22;5256;48.728;9.140;2022-10-29T14:55:17;22.40;99.90
10419;DHT22;5256;48.728;9.140;2022-10-29T14:57:53;22.30;99.90
10419;DHT22;5256;48.728;9.140;2022-10-29T15:00:26;22.20;99.90
10419;DHT22;5256;48.728;9.140;2022-10-29T15:02:52;22.10;99.90
10419;DHT22;5256;48.728;9.140;2022-10-29T15:05:35;22.00;99.90
10419;DHT22;5256;48.728;9.140;2022-10-29T15:08:05;21.90;99.90
10419;DHT22;5256;48.728;9.140;2022-10-29T15:10:31;21.70;99.90
10419;DHT22;5256;48.728;9.140;2022-10-29T15:12:57;21.60;99.90
10419;DHT22;5256;48.728;9.140;2022-10-29T15:15:25;21.50;99.90
10419;DHT22;5256;48.728;9.140;2022-10-29T15:18:15;21.40;99.90
10419;DHT22;5256;48.728;9.140;2022-10-29T15:26:18;21.00;99.90
10419;DHT22;5256;48.728;9.140;2022-10-29T15:28:46;20.80;99.90
10419;DHT22;5256;48.728;9.140;2022-10-29T15:31:29;20.70;99.90
10419;DHT22;5256;48.728;9.140;2022-10-29T15:33:59;20.60;99.90
10419;DHT22;5256;48.728;9.140;2022-10-29T15:36:43;20.40;99.90
10419;DHT22;5256;48.728;9.140;2022-10-29T15:39:23;20.30;99.90
10419;DHT22;5256;48.728;9.140;2022-10-29T15:41:51;20.20;99.90
10419;DHT22;5256;48.728;9.140;2022-10-29T15:44:33;20.10;99.90
10419;DHT22;5256;48.728;9.140;2022-10-29T15:47:02;20.00;99.90
10419;DHT22;5256;48.728;9.140;2022-10-29T15:49:40;19.80;99.90
10419;DHT22;5256;48.728;9.140;2022-10-29T15:52:09;19.70;99.90
10419;DHT22;5256;48.728;9.140;2022-10-29T15:54:38;19.70;99.90
10419;DHT22;5256;48.728;9.140;2022-10-29T15:57:04;19.60;99.90
10419;DHT22;5256;48.728;9.140;2022-10-29T15:59:30;19.50;99.90
10419;DHT22;5256;48.728;9.140;2022-10-29T16:01:55;19.50;99.90
10419;DHT22;5256;48.728;9.140;2022-10-29T16:04:21;19.50;99.90
10419;DHT22;5256;48.728;9.140;2022-10-29T16:06:46;19.40;99.90
10419;DHT22;5256;48.728;9.140;2022-10-29T16:09:17;19.30;99.90
10419;DHT22;5256;48.728;9.140;2022-10-29T16:11:44;19.20;99.90
10419;DHT22;5256;48.728;9.140;2022-10-29T16:14:09;19.10;99.90
10419;DHT22;5256;48.728;9.140;2022-10-29T16:16:35;18.90;99.90
10419;DHT22;5256;48.728;9.140;2022-10-29T16:19:01;18.80;99.90
10419;DHT22;5256;48.728;9.140;2022-10-29T16:21:26;18.70;99.90
10419;DHT22;5256;48.728;9.140;2022-10-29T16:23:52;18.60;99.90
10419;DHT22;5256;48.728;9.140;2022-10-29T16:26:20;18.60;99.90
10419;DHT22;5256;48.728;9.140;2022-10-29T16:28:46;18.40;99.90
10419;DHT22;5256;48.728;9.140;2022-10-29T16:31:23;18.30;99.90
10419;DHT22;5256;48.728;9.140;2022-10-29T16:33:51;18.20;99.90
10419;DHT22;5256;48.728;9.140;2022-10-29T16:36:17;18.10;99.90
10419;DHT22;5256;48.728;9.140;2022-10-29T16:38:42;18.10;99.90
10419;DHT22;5256;48.728;9.140;2022-10-29T16:41:16;18.00;99.90
10419;DHT22;5256;48.728;9.140;2022-10-29T16:43:42;18.00;99.90
10419;DHT22;5256;48.728;9.140;2022-10-29T16:46:08;17.90;99.90
10419;DHT22;5256;48.728;9.140;2022-10-29T16:48:35;17.90;99.90
10419;DHT22;5256;48.728;9.140;2022-10-29T16:51:00;17.90;99.90
10419;DHT22;5256;48.728;9.140;2022-10-29T16:53:26;17.90;99.90
10419;DHT22;5256;48.728;9.140;2022-10-29T16:55:52;17.90;99.90
10419;DHT22;5256;48.728;9.140;2022-10-29T16:58:17;17.80;99.90
10419;DHT22;5256;48.728;9.140;2022-10-29T17:00:44;17.80;99.90
10419;DHT22;5256;48.728;9.140;2022-10-29T17:03:14;17.80;99.90
10419;DHT22;5256;48.728;9.140;2022-10-29T17:05:41;17.80;99.90
10419;DHT22;5256;48.728;9.140;2022-10-29T17:08:08;17.80;99.90
10419;DHT22;5256;48.728;9.140;2022-10-29T17:10:34;17.90;99.90
10419;DHT22;5256;48.728;9.140;2022-10-29T17:13:00;17.80;99.90
10419;DHT22;5256;48.728;9.140;2022-10-29T17:15:25;17.80;99.90
10419;DHT22;5256;48.728;9.140;2022-10-29T17:17:51;17.80;99.90
10419;DHT22;5256;48.728;9.140;2022-10-29T17:20:17;17.80;99.90
10419;DHT22;5256;48.728;9.140;2022-10-29T17:22:42;17.70;99.90
10419;DHT22;5256;48.728;9.140;2022-10-29T17:25:09;17.70;99.90
10419;DHT22;5256;48.728;9.140;2022-10-29T17:27:37;17.60;99.90
10419;DHT22;5256;48.728;9.140;2022-10-29T17:30:04;17.60;99.90
10419;DHT22;5256;48.728;9.140;2022-10-29T17:32:30;17.50;99.90
10419;DHT22;5256;48.728;9.140;2022-10-29T17:34:58;17.40;99.90
10419;DHT22;5256;48.728;9.140;2022-10-29T17:37:24;17.30;99.90
10419;DHT22;5256;48.728;9.140;2022-10-29T17:39:49;17.20;99.90
10419;DHT22;5256;48.728;9.140;2022-10-29T17:42:15;17.10;99.90
10419;DHT22;5256;48.728;9.140;2022-10-29T17:44:40;17.00;99.90
10419;DHT22;5256;48.728;9.140;2022-10-29T17:47:06;17.00;99.90
10419;DHT22;5256;48.728;9.140;2022-10-29T17:49:32;16.90;99.90
10419;DHT22;5256;48.728;9.140;2022-10-29T17:51:57;17.00;99.90
10419;DHT22;5256;48.728;9.140;2022-10-29T17:54:23;16.90;99.90
10419;DHT22;5256;48.728;9.140;2022-10-29T17:56:48;16.80;99.90
10419;DHT22;5256;48.728;9.140;2022-10-29T17:59:15;16.80;99.90
10419;DHT22;5256;48.728;9.140;2022-10-29T18:01:43;16.70;99.90
10419;DHT22;5256;48.728;9.140;2022-10-29T18:04:09;16.60;99.90
10419;DHT22;5256;48.728;9.140;2022-10-29T18:06:35;16.50;99.90
10419;DHT22;5256;48.728;9.140;2022-10-29T18:09:00;16.50;99.90
10419;DHT22;5256;48.728;9.140;2022-10-29T18:11:26;16.50;99.90
10419;DHT22;5256;48.728;9.140;2022-10-29T18:13:52;16.40;99.90
10419;DHT22;5256;48.728;9.140;2022-10-29T18:16:24;16.40;99.90